sensor_id;sensor_type;location;lat;lon;timestamp;pressure;altitude;pressure_sealevel;temperature;humidity
84116;BME280;74211;52.234;9.860;2024-03-08T00:01:02;101585.91;;;1.14;81.29
84116;BME280;74211;52.234;9.860;2024-03-08T00:03:33;101580.19;;;1.10;81.39
84116;BME280;74211;52.234;9.860;2024-03-08T00:06:04;101579.13;;;1.13;81.45
84116;BME280;74211;52.234;9.860;2024-03-08T00:08:34;101574.63;;;1.03;81.44
84116;BME280;74211;52.234;9.860;2024-03-08T00:11:06;101578.34;;;0.99;82.07
84116;BME280;74211;52.234;9.860;2024-03-08T00:13:40;101588.09;;;0.94;82.13
84116;BME280;74211;52.234;9.860;2024-03-08T00:16:12;101578.34;;;0.87;82.73
84116;BME280;74211;52.234;9.860;2024-03-08T00:18:42;101577.41;;;0.75;82.86
84116;BME280;74211;52.234;9.860;2024-03-08T00:21:12;101581.34;;;0.68;82.55
84116;BME280;74211;52.234;9.860;2024-03-08T00:23:42;101583.47;;;0.61;83.33
84116;BME280;74211;52.234;9.860;2024-03-08T00:26:12;101578.88;;;0.54;83.38
84116;BME280;74211;52.234;9.860;2024-03-08T00:28:45;101551.53;;;0.27;83.77
84116;BME280;74211;52.234;9.860;2024-03-08T00:31:15;101580.28;;;0.32;83.72
84116;BME280;74211;52.234;9.860;2024-03-08T00:33:45;101578.81;;;0.28;84.04
84116;BME280;74211;52.234;9.860;2024-03-08T00:36:16;101575.72;;;0.23;84.63
84116;BME280;74211;52.234;9.860;2024-03-08T00:38:47;101576.75;;;0.21;84.69
84116;BME280;74211;52.234;9.860;2024-03-08T00:41:17;101573.44;;;0.19;85.22
84116;BME280;74211;52.234;9.860;2024-03-08T00:43:49;101566.91;;;0.15;85.31
84116;BME280;74211;52.234;9.860;2024-03-08T00:46:19;101567.28;;;0.09;85.13
84116;BME280;74211;52.234;9.860;2024-03-08T00:48:49;101571.69;;;0.07;85.26
84116;BME280;74211;52.234;9.860;2024-03-08T00:51:19;101563.78;;;-0.03;85.47
84116;BME280;74211;52.234;9.860;2024-03-08T00:53:49;101557.09;;;-0.06;85.93
84116;BME280;74211;52.234;9.860;2024-03-08T00:56:20;101558.31;;;-0.11;85.80
84116;BME280;74211;52.234;9.860;2024-03-08T00:58:54;101546.69;;;-0.17;86.09
84116;BME280;74211;52.234;9.860;2024-03-08T01:01:24;101548.44;;;-0.17;86.54
84116;BME280;74211;52.234;9.860;2024-03-08T01:03:55;101543.84;;;-0.12;87.32
84116;BME280;74211;52.234;9.860;2024-03-08T01:06:25;101540.91;;;-0.06;87.03
84116;BME280;74211;52.234;9.860;2024-03-08T01:08:55;101541.44;;;-0.01;87.14
84116;BME280;74211;52.234;9.860;2024-03-08T01:11:25;101536.28;;;-0.01;86.83
84116;BME280;74211;52.234;9.860;2024-03-08T01:13:58;101535.06;;;0.05;87.16
84116;BME280;74211;52.234;9.860;2024-03-08T01:16:28;101525.75;;;0.16;86.72
84116;BME280;74211;52.234;9.860;2024-03-08T01:19:00;101513.22;;;0.12;86.56
84116;BME280;74211;52.234;9.860;2024-03-08T01:21:30;101520.72;;;0.15;86.27
84116;BME280;74211;52.234;9.860;2024-03-08T01:24:00;101513.97;;;0.14;86.18
84116;BME280;74211;52.234;9.860;2024-03-08T01:26:30;101509.66;;;0.14;85.67
84116;BME280;74211;52.234;9.860;2024-03-08T01:29:04;101506.75;;;0.19;85.72
84116;BME280;74211;52.234;9.860;2024-03-08T01:31:35;101506.75;;;0.19;85.69
84116;BME280;74211;52.234;9.860;2024-03-08T01:34:06;101505.34;;;0.27;85.47
84116;BME280;74211;52.234;9.860;2024-03-08T01:36:36;101499.50;;;0.25;85.34
84116;BME280;74211;52.234;9.860;2024-03-08T01:39:06;101497.66;;;0.27;85.39
84116;BME280;74211;52.234;9.860;2024-03-08T01:41:36;101501.66;;;0.31;85.21
84116;BME280;74211;52.234;9.860;2024-03-08T01:44:09;101495.16;;;0.39;84.89
84116;BME280;74211;52.234;9.860;2024-03-08T01:46:43;101487.06;;;0.45;84.83
84116;BME280;74211;52.234;9.860;2024-03-08T01:49:14;101482.34;;;0.51;84.38
84116;BME280;74211;52.234;9.860;2024-03-08T01:51:45;101478.25;;;0.49;84.12
84116;BME280;74211;52.234;9.860;2024-03-08T01:54:16;101477.53;;;0.47;84.19
84116;BME280;74211;52.234;9.860;2024-03-08T01:56:47;101474.53;;;0.40;84.31
84116;BME280;74211;52.234;9.860;2024-03-08T01:59:23;101468.41;;;0.30;84.39
84116;BME280;74211;52.234;9.860;2024-03-08T02:01:55;101474.56;;;0.27;84.91
84116;BME280;74211;52.234;9.860;2024-03-08T02:04:25;101472.28;;;0.23;85.25
84116;BME280;74211;52.234;9.860;2024-03-08T02:06:57;101475.56;;;0.12;85.50
84116;BME280;74211;52.234;9.860;2024-03-08T02:09:27;101467.59;;;0.17;85.68
84116;BME280;74211;52.234;9.860;2024-03-08T02:11:58;101467.06;;;0.12;85.31
84116;BME280;74211;52.234;9.860;2024-03-08T02:14:35;101457.31;;;0.17;85.53
84116;BME280;74211;52.234;9.860;2024-03-08T02:17:07;101460.47;;;0.08;85.15
84116;BME280;74211;52.234;9.860;2024-03-08T02:19:34;101454.44;;;0.09;85.22
84116;BME280;74211;52.234;9.860;2024-03-08T02:22:07;101454.53;;;0.07;85.23
84116;BME280;74211;52.234;9.860;2024-03-08T02:24:37;101452.69;;;0.09;85.63
84116;BME280;74211;52.234;9.860;2024-03-08T02:27:07;101444.81;;;0.12;84.93
84116;BME280;74211;52.234;9.860;2024-03-08T02:29:39;101440.59;;;0.11;85.29
84116;BME280;74211;52.234;9.860;2024-03-08T02:32:11;101442.09;;;0.01;85.10
84116;BME280;74211;52.234;9.860;2024-03-08T02:34:41;101441.91;;;0.04;85.84
84116;BME280;74211;52.234;9.860;2024-03-08T02:37:14;101438.63;;;0.02;85.81
84116;BME280;74211;52.234;9.860;2024-03-08T02:39:44;101436.97;;;0.01;85.45
84116;BME280;74211;52.234;9.860;2024-03-08T02:42:14;101428.38;;;0.02;85.11
84116;BME280;74211;52.234;9.860;2024-03-08T02:44:44;101429.50;;;-0.02;85.53
84116;BME280;74211;52.234;9.860;2024-03-08T02:47:14;101427.53;;;0.02;85.17
84116;BME280;74211;52.234;9.860;2024-03-08T02:49:44;101427.16;;;-0.05;84.65
84116;BME280;74211;52.234;9.860;2024-03-08T02:52:17;101424.06;;;-0.10;85.64
84116;BME280;74211;52.234;9.860;2024-03-08T02:54:48;101419.56;;;-0.07;85.35
84116;BME280;74211;52.234;9.860;2024-03-08T02:57:18;101403.03;;;-0.15;85.35
84116;BME280;74211;52.234;9.860;2024-03-08T02:59:49;101419.84;;;-0.11;85.44
84116;BME280;74211;52.234;9.860;2024-03-08T03:02:19;101417.47;;;-0.14;85.18
84116;BME280;74211;52.234;9.860;2024-03-08T03:04:50;101415.13;;;-0.17;85.69
84116;BME280;74211;52.234;9.860;2024-03-08T03:07:23;101412.06;;;-0.22;86.05
84116;BME280;74211;52.234;9.860;2024-03-08T03:09:54;101413.06;;;-0.25;85.95
84116;BME280;74211;52.234;9.860;2024-03-08T03:12:24;101411.97;;;-0.21;86.46
84116;BME280;74211;52.234;9.860;2024-03-08T03:14:55;101379.94;;;-0.41;86.21
84116;BME280;74211;52.234;9.860;2024-03-08T03:17:26;101386.19;;;-0.32;86.77
84116;BME280;74211;52.234;9.860;2024-03-08T03:19:57;101404.75;;;-0.28;86.66
84116;BME280;74211;52.234;9.860;2024-03-08T03:22:32;101391.41;;;-0.33;87.00
84116;BME280;74211;52.234;9.860;2024-03-08T03:25:02;101383.81;;;-0.35;86.29
84116;BME280;74211;52.234;9.860;2024-03-08T03:27:33;101395.63;;;-0.32;86.85
84116;BME280;74211;52.234;9.860;2024-03-08T03:30:05;101392.22;;;-0.46;86.72
84116;BME280;74211;52.234;9.860;2024-03-08T03:32:49;101387.41;;;-0.50;86.90
84116;BME280;74211;52.234;9.860;2024-03-08T03:35:22;101391.19;;;-0.56;86.88
84116;BME280;74211;52.234;9.860;2024-03-08T03:37:55;101389.31;;;-0.66;87.10
84116;BME280;74211;52.234;9.860;2024-03-08T03:40:38;101391.34;;;-0.72;87.35
84116;BME280;74211;52.234;9.860;2024-03-08T03:43:09;101399.34;;;-0.76;87.62
84116;BME280;74211;52.234;9.860;2024-03-08T03:45:39;101392.97;;;-0.83;87.84
84116;BME280;74211;52.234;9.860;2024-03-08T03:48:10;101383.28;;;-0.92;87.72
84116;BME280;74211;52.234;9.860;2024-03-08T03:50:40;101385.44;;;-0.99;88.22
84116;BME280;74211;52.234;9.860;2024-03-08T03:53:13;101392.38;;;-1.01;88.01
84116;BME280;74211;52.234;9.860;2024-03-08T03:55:43;101386.34;;;-1.00;88.47
84116;BME280;74211;52.234;9.860;2024-03-08T03:58:14;101389.38;;;-1.08;87.99
84116;BME280;74211;52.234;9.860;2024-03-08T04:00:50;101387.50;;;-1.18;88.67
84116;BME280;74211;52.234;9.860;2024-03-08T04:03:20;101388.31;;;-1.18;89.38
84116;BME280;74211;52.234;9.860;2024-03-08T04:05:49;101382.09;;;-1.14;89.98
84116;BME280;74211;52.234;9.860;2024-03-08T04:08:22;101389.78;;;-1.14;89.23
84116;BME280;74211;52.234;9.860;2024-03-08T04:10:52;101384.84;;;-1.17;89.47
84116;BME280;74211;52.234;9.860;2024-03-08T04:13:22;101377.25;;;-1.18;89.19
84116;BME280;74211;52.234;9.860;2024-03-08T04:15:52;101380.28;;;-1.12;89.46
84116;BME280;74211;52.234;9.860;2024-03-08T04:18:22;101385.56;;;-1.15;90.02
84116;BME280;74211;52.234;9.860;2024-03-08T04:20:52;101378.09;;;-1.18;89.30
84116;BME280;74211;52.234;9.860;2024-03-08T04:23:25;101383.28;;;-1.19;89.24
84116;BME280;74211;52.234;9.860;2024-03-08T04:25:55;101380.00;;;-1.21;89.21
84116;BME280;74211;52.234;9.860;2024-03-08T04:28:25;101379.72;;;-1.17;89.56
84116;BME280;74211;52.234;9.860;2024-03-08T04:30:55;101382.66;;;-1.23;88.79
84116;BME280;74211;52.234;9.860;2024-03-08T04:33:27;101381.19;;;-1.27;88.94
84116;BME280;74211;52.234;9.860;2024-03-08T04:35:58;101375.66;;;-1.33;88.71
84116;BME280;74211;52.234;9.860;2024-03-08T04:38:30;101368.91;;;-1.34;89.30
84116;BME280;74211;52.234;9.860;2024-03-08T04:41:01;101362.56;;;-1.29;89.96
84116;BME280;74211;52.234;9.860;2024-03-08T04:43:31;101361.91;;;-1.18;90.40
84116;BME280;74211;52.234;9.860;2024-03-08T04:46:01;101364.19;;;-1.14;90.43
84116;BME280;74211;52.234;9.860;2024-03-08T04:48:32;101361.81;;;-1.17;90.23
84116;BME280;74211;52.234;9.860;2024-03-08T04:51:04;101337.13;;;-1.18;89.76
84116;BME280;74211;52.234;9.860;2024-03-08T04:53:36;101352.63;;;-1.07;89.63
84116;BME280;74211;52.234;9.860;2024-03-08T04:56:06;101357.94;;;-1.10;89.76
84116;BME280;74211;52.234;9.860;2024-03-08T04:58:37;101356.63;;;-1.02;89.34
84116;BME280;74211;52.234;9.860;2024-03-08T05:01:07;101352.16;;;-0.99;88.92
84116;BME280;74211;52.234;9.860;2024-03-08T05:03:38;101351.31;;;-0.99;89.00
84116;BME280;74211;52.234;9.860;2024-03-08T05:06:08;101355.44;;;-0.97;88.49
84116;BME280;74211;52.234;9.860;2024-03-08T05:08:40;101351.13;;;-0.96;88.42
84116;BME280;74211;52.234;9.860;2024-03-08T05:11:10;101348.16;;;-0.90;88.57
84116;BME280;74211;52.234;9.860;2024-03-08T05:13:41;101354.19;;;-0.91;88.12
84116;BME280;74211;52.234;9.860;2024-03-08T05:16:12;101345.50;;;-0.89;87.97
84116;BME280;74211;52.234;9.860;2024-03-08T05:18:42;101350.34;;;-0.84;88.15
84116;BME280;74211;52.234;9.860;2024-03-08T05:21:14;101354.63;;;-0.85;87.88
84116;BME280;74211;52.234;9.860;2024-03-08T05:23:49;101353.00;;;-0.86;87.96
84116;BME280;74211;52.234;9.860;2024-03-08T05:26:20;101358.13;;;-0.86;87.71
84116;BME280;74211;52.234;9.860;2024-03-08T05:28:50;101363.44;;;-0.89;88.18
84116;BME280;74211;52.234;9.860;2024-03-08T05:31:20;101357.81;;;-0.94;88.03
84116;BME280;74211;52.234;9.860;2024-03-08T05:33:51;101350.31;;;-0.97;88.18
84116;BME280;74211;52.234;9.860;2024-03-08T05:36:22;101350.22;;;-0.95;88.47
84116;BME280;74211;52.234;9.860;2024-03-08T05:38:55;101353.50;;;-0.93;88.22
84116;BME280;74211;52.234;9.860;2024-03-08T05:41:25;101346.00;;;-0.96;88.73
84116;BME280;74211;52.234;9.860;2024-03-08T05:43:55;101340.47;;;-0.90;88.04
84116;BME280;74211;52.234;9.860;2024-03-08T05:46:25;101340.28;;;-0.87;88.02
84116;BME280;74211;52.234;9.860;2024-03-08T05:48:55;101327.28;;;-0.97;88.05
84116;BME280;74211;52.234;9.860;2024-03-08T05:51:26;101345.22;;;-0.84;87.85
84116;BME280;74211;52.234;9.860;2024-03-08T05:54:00;101340.63;;;-0.79;87.75
84116;BME280;74211;52.234;9.860;2024-03-08T05:56:30;101345.75;;;-0.79;87.59
84116;BME280;74211;52.234;9.860;2024-03-08T05:59:01;101349.03;;;-0.77;87.54
84116;BME280;74211;52.234;9.860;2024-03-08T06:01:31;101339.72;;;-0.78;87.66
84116;BME280;74211;52.234;9.860;2024-03-08T06:04:03;101344.50;;;-0.74;87.96
84116;BME280;74211;52.234;9.860;2024-03-08T06:06:34;101348.72;;;-0.73;87.49
84116;BME280;74211;52.234;9.860;2024-03-08T06:09:07;101350.88;;;-0.66;87.07
84116;BME280;74211;52.234;9.860;2024-03-08T06:11:43;101348.13;;;-0.63;87.39
84116;BME280;74211;52.234;9.860;2024-03-08T06:14:13;101350.78;;;-0.65;87.38
84116;BME280;74211;52.234;9.860;2024-03-08T06:16:45;101344.66;;;-0.62;87.27
84116;BME280;74211;52.234;9.860;2024-03-08T06:19:17;101347.22;;;-0.62;87.15
84116;BME280;74211;52.234;9.860;2024-03-08T06:21:47;101343.63;;;-0.60;87.24
84116;BME280;74211;52.234;9.860;2024-03-08T06:24:20;101359.41;;;-0.53;87.05
84116;BME280;74211;52.234;9.860;2024-03-08T06:26:50;101344.84;;;-0.53;87.01
84116;BME280;74211;52.234;9.860;2024-03-08T06:29:20;101353.28;;;-0.51;86.65
84116;BME280;74211;52.234;9.860;2024-03-08T06:31:50;101348.66;;;-0.46;86.73
84116;BME280;74211;52.234;9.860;2024-03-08T06:34:23;101342.44;;;-0.42;86.64
84116;BME280;74211;52.234;9.860;2024-03-08T06:36:53;101347.13;;;-0.36;87.10
84116;BME280;74211;52.234;9.860;2024-03-08T06:39:30;101349.19;;;-0.41;87.07
84116;BME280;74211;52.234;9.860;2024-03-08T06:42:02;101343.66;;;-0.35;86.77
84116;BME280;74211;52.234;9.860;2024-03-08T06:44:33;101351.22;;;-0.33;86.87
84116;BME280;74211;52.234;9.860;2024-03-08T06:47:03;101344.16;;;-0.29;86.97
84116;BME280;74211;52.234;9.860;2024-03-08T06:49:33;101344.06;;;-0.28;86.94
84116;BME280;74211;52.234;9.860;2024-03-08T06:52:04;101343.03;;;-0.25;86.55
84116;BME280;74211;52.234;9.860;2024-03-08T06:54:38;101345.69;;;-0.14;86.35
84116;BME280;74211;52.234;9.860;2024-03-08T06:57:08;101341.00;;;-0.08;86.34
84116;BME280;74211;52.234;9.860;2024-03-08T06:59:38;101336.88;;;0.03;86.02
84116;BME280;74211;52.234;9.860;2024-03-08T07:02:08;101340.56;;;0.11;85.73
84116;BME280;74211;52.234;9.860;2024-03-08T07:04:38;101325.16;;;0.11;85.01
84116;BME280;74211;52.234;9.860;2024-03-08T07:07:09;101341.56;;;0.21;84.98
84116;BME280;74211;52.234;9.860;2024-03-08T07:09:44;101345.34;;;0.28;84.80
84116;BME280;74211;52.234;9.860;2024-03-08T07:12:16;101338.78;;;0.24;84.85
84116;BME280;74211;52.234;9.860;2024-03-08T07:14:47;101348.69;;;0.42;84.76
84116;BME280;74211;52.234;9.860;2024-03-08T07:17:17;101343.88;;;0.50;84.35
84116;BME280;74211;52.234;9.860;2024-03-08T07:19:47;101353.47;;;0.59;84.37
84116;BME280;74211;52.234;9.860;2024-03-08T07:22:17;101347.81;;;0.66;83.78
84116;BME280;74211;52.234;9.860;2024-03-08T07:24:51;101344.94;;;0.71;83.82
84116;BME280;74211;52.234;9.860;2024-03-08T07:27:44;101351.47;;;0.75;83.93
84116;BME280;74211;52.234;9.860;2024-03-08T07:30:14;101346.81;;;0.80;83.55
84116;BME280;74211;52.234;9.860;2024-03-08T07:33:07;101341.97;;;0.88;83.46
84116;BME280;74211;52.234;9.860;2024-03-08T07:35:39;101345.72;;;0.95;83.45
84116;BME280;74211;52.234;9.860;2024-03-08T07:38:11;101339.66;;;0.96;83.32
84116;BME280;74211;52.234;9.860;2024-03-08T07:40:44;101330.81;;;1.00;83.25
84116;BME280;74211;52.234;9.860;2024-03-08T07:43:15;101331.09;;;1.09;82.92
84116;BME280;74211;52.234;9.860;2024-03-08T07:45:45;101330.63;;;1.15;82.70
84116;BME280;74211;52.234;9.860;2024-03-08T07:48:15;101329.03;;;1.25;82.32
84116;BME280;74211;52.234;9.860;2024-03-08T07:50:45;101312.69;;;1.26;82.41
84116;BME280;74211;52.234;9.860;2024-03-08T07:53:17;101328.72;;;1.41;81.69
84116;BME280;74211;52.234;9.860;2024-03-08T07:55:50;101324.78;;;1.48;81.08
84116;BME280;74211;52.234;9.860;2024-03-08T07:58:20;101326.53;;;1.58;80.70
84116;BME280;74211;52.234;9.860;2024-03-08T08:00:50;101321.88;;;1.63;80.65
84116;BME280;74211;52.234;9.860;2024-03-08T08:03:22;101319.53;;;1.60;80.61
84116;BME280;74211;52.234;9.860;2024-03-08T08:05:52;101311.72;;;1.73;80.30
84116;BME280;74211;52.234;9.860;2024-03-08T08:08:22;101312.19;;;1.78;80.11
84116;BME280;74211;52.234;9.860;2024-03-08T08:10:56;101308.56;;;1.92;79.85
84116;BME280;74211;52.234;9.860;2024-03-08T08:13:26;101304.94;;;1.94;80.11
84116;BME280;74211;52.234;9.860;2024-03-08T08:15:59;101311.25;;;2.01;79.69
84116;BME280;74211;52.234;9.860;2024-03-08T08:18:29;101301.91;;;2.00;79.29
84116;BME280;74211;52.234;9.860;2024-03-08T08:21:00;101308.69;;;2.13;79.05
84116;BME280;74211;52.234;9.860;2024-03-08T08:23:30;101303.28;;;2.16;78.97
84116;BME280;74211;52.234;9.860;2024-03-08T08:26:03;101300.72;;;2.16;78.60
84116;BME280;74211;52.234;9.860;2024-03-08T08:28:34;101298.72;;;2.30;78.90
84116;BME280;74211;52.234;9.860;2024-03-08T08:31:05;101292.16;;;2.37;78.25
84116;BME280;74211;52.234;9.860;2024-03-08T08:33:35;101292.81;;;2.51;78.25
84116;BME280;74211;52.234;9.860;2024-03-08T08:36:07;101301.91;;;2.66;77.53
84116;BME280;74211;52.234;9.860;2024-03-08T08:38:37;101299.03;;;2.80;77.08
84116;BME280;74211;52.234;9.860;2024-03-08T08:41:14;101287.31;;;2.87;76.56
84116;BME280;74211;52.234;9.860;2024-03-08T08:43:48;101286.41;;;2.77;76.56
84116;BME280;74211;52.234;9.860;2024-03-08T08:46:34;101281.97;;;3.00;76.72
84116;BME280;74211;52.234;9.860;2024-03-08T08:49:08;101286.63;;;3.06;76.29
84116;BME280;74211;52.234;9.860;2024-03-08T08:51:41;101270.34;;;3.05;75.72
84116;BME280;74211;52.234;9.860;2024-03-08T08:54:11;101284.56;;;3.21;75.33
84116;BME280;74211;52.234;9.860;2024-03-08T08:56:46;101262.88;;;3.23;75.17
84116;BME280;74211;52.234;9.860;2024-03-08T08:59:17;101269.97;;;3.31;74.92
84116;BME280;74211;52.234;9.860;2024-03-08T09:01:49;101268.38;;;3.39;74.84
84116;BME280;74211;52.234;9.860;2024-03-08T09:04:21;101264.63;;;3.43;74.70
84116;BME280;74211;52.234;9.860;2024-03-08T09:06:51;101262.63;;;3.57;74.10
84116;BME280;74211;52.234;9.860;2024-03-08T09:09:22;101253.56;;;3.62;73.56
84116;BME280;74211;52.234;9.860;2024-03-08T09:11:55;101255.53;;;3.79;73.50
84116;BME280;74211;52.234;9.860;2024-03-08T09:14:25;101253.81;;;3.90;72.98
84116;BME280;74211;52.234;9.860;2024-03-08T09:16:56;101223.13;;;3.87;72.62
84116;BME280;74211;52.234;9.860;2024-03-08T09:19:26;101246.53;;;4.14;72.78
84116;BME280;74211;52.234;9.860;2024-03-08T09:21:57;101253.75;;;4.20;71.43
84116;BME280;74211;52.234;9.860;2024-03-08T09:24:26;101248.06;;;4.26;71.91
84116;BME280;74211;52.234;9.860;2024-03-08T09:27:05;101253.75;;;4.30;71.43
84116;BME280;74211;52.234;9.860;2024-03-08T09:29:36;101237.22;;;4.42;70.79
84116;BME280;74211;52.234;9.860;2024-03-08T09:32:07;101237.50;;;4.58;71.24
84116;BME280;74211;52.234;9.860;2024-03-08T09:34:38;101212.47;;;4.59;71.25
84116;BME280;74211;52.234;9.860;2024-03-08T09:37:08;101231.50;;;4.77;70.02
84116;BME280;74211;52.234;9.860;2024-03-08T09:39:38;101229.03;;;4.95;69.60
84116;BME280;74211;52.234;9.860;2024-03-08T09:42:11;101213.78;;;4.92;69.95
84116;BME280;74211;52.234;9.860;2024-03-08T09:44:44;101215.56;;;5.01;68.70
84116;BME280;74211;52.234;9.860;2024-03-08T09:47:16;101212.00;;;5.11;68.28
84116;BME280;74211;52.234;9.860;2024-03-08T09:49:47;101208.00;;;5.27;68.91
84116;BME280;74211;52.234;9.860;2024-03-08T09:52:18;101201.72;;;5.29;67.82
84116;BME280;74211;52.234;9.860;2024-03-08T09:54:48;101192.25;;;5.47;67.75
84116;BME280;74211;52.234;9.860;2024-03-08T09:57:21;101191.78;;;5.62;67.46
84116;BME280;74211;52.234;9.860;2024-03-08T09:59:51;101190.28;;;5.59;66.31
84116;BME280;74211;52.234;9.860;2024-03-08T10:02:21;101184.44;;;5.57;66.72
84116;BME280;74211;52.234;9.860;2024-03-08T10:04:52;101172.72;;;5.63;66.23
84116;BME280;74211;52.234;9.860;2024-03-08T10:07:23;101169.78;;;5.75;66.14
84116;BME280;74211;52.234;9.860;2024-03-08T10:09:53;101175.47;;;5.79;65.80
84116;BME280;74211;52.234;9.860;2024-03-08T10:12:26;101172.75;;;6.08;65.48
84116;BME280;74211;52.234;9.860;2024-03-08T10:14:56;101174.38;;;6.09;63.96
84116;BME280;74211;52.234;9.860;2024-03-08T10:17:28;101167.19;;;6.20;63.73
84116;BME280;74211;52.234;9.860;2024-03-08T10:19:59;101160.00;;;6.32;64.15
84116;BME280;74211;52.234;9.860;2024-03-08T10:22:32;101148.03;;;6.49;63.90
84116;BME280;74211;52.234;9.860;2024-03-08T10:25:03;101165.63;;;6.63;63.05
84116;BME280;74211;52.234;9.860;2024-03-08T10:27:36;101154.44;;;6.63;63.27
84116;BME280;74211;52.234;9.860;2024-03-08T10:30:10;101154.69;;;6.77;62.60
84116;BME280;74211;52.234;9.860;2024-03-08T10:32:43;101145.44;;;6.75;63.14
84116;BME280;74211;52.234;9.860;2024-03-08T10:35:13;101133.34;;;6.83;62.11
84116;BME280;74211;52.234;9.860;2024-03-08T10:37:45;101158.28;;;7.10;61.79
84116;BME280;74211;52.234;9.860;2024-03-08T10:40:18;101145.53;;;7.17;61.33
84116;BME280;74211;52.234;9.860;2024-03-08T10:42:55;101144.47;;;7.36;60.95
84116;BME280;74211;52.234;9.860;2024-03-08T10:45:35;101146.72;;;7.30;60.50
84116;BME280;74211;52.234;9.860;2024-03-08T10:48:24;101145.50;;;7.51;59.77
84116;BME280;74211;52.234;9.860;2024-03-08T10:51:04;101136.94;;;7.58;59.13
84116;BME280;74211;52.234;9.860;2024-03-08T10:53:36;101145.09;;;7.72;59.68
84116;BME280;74211;52.234;9.860;2024-03-08T10:56:08;101141.56;;;7.89;59.09
84116;BME280;74211;52.234;9.860;2024-03-08T10:58:44;101132.16;;;7.96;60.08
84116;BME280;74211;52.234;9.860;2024-03-08T11:01:15;101121.78;;;8.20;59.57
84116;BME280;74211;52.234;9.860;2024-03-08T11:03:46;101124.06;;;8.64;59.06
84116;BME280;74211;52.234;9.860;2024-03-08T11:06:23;101122.44;;;8.55;56.77
84116;BME280;74211;52.234;9.860;2024-03-08T11:08:59;101116.94;;;8.33;56.93
84116;BME280;74211;52.234;9.860;2024-03-08T11:11:30;101116.09;;;8.57;56.84
84116;BME280;74211;52.234;9.860;2024-03-08T11:14:04;101114.34;;;8.33;57.17
84116;BME280;74211;52.234;9.860;2024-03-08T11:16:38;101109.72;;;8.76;56.89
84116;BME280;74211;52.234;9.860;2024-03-08T11:19:24;101097.09;;;9.12;56.73
84116;BME280;74211;52.234;9.860;2024-03-08T11:22:00;101085.13;;;8.95;55.64
84116;BME280;74211;52.234;9.860;2024-03-08T11:24:38;101071.31;;;8.94;57.15
84116;BME280;74211;52.234;9.860;2024-03-08T11:27:09;101082.94;;;9.15;56.47
84116;BME280;74211;52.234;9.860;2024-03-08T11:29:42;101077.00;;;9.37;55.50
84116;BME280;74211;52.234;9.860;2024-03-08T11:32:14;101069.16;;;9.45;54.98
84116;BME280;74211;52.234;9.860;2024-03-08T11:34:46;101066.03;;;9.11;55.13
84116;BME280;74211;52.234;9.860;2024-03-08T11:37:19;101062.25;;;9.21;54.88
84116;BME280;74211;52.234;9.860;2024-03-08T11:39:53;101048.50;;;9.35;55.28
84116;BME280;74211;52.234;9.860;2024-03-08T11:42:27;101040.31;;;9.92;54.79
84116;BME280;74211;52.234;9.860;2024-03-08T11:45:00;101018.38;;;10.24;53.90
84116;BME280;74211;52.234;9.860;2024-03-08T11:47:31;101046.97;;;10.18;53.33
84116;BME280;74211;52.234;9.860;2024-03-08T11:50:02;101037.22;;;10.49;53.80
84116;BME280;74211;52.234;9.860;2024-03-08T11:52:38;101039.47;;;10.15;53.41
84116;BME280;74211;52.234;9.860;2024-03-08T11:55:08;101039.72;;;10.28;53.20
84116;BME280;74211;52.234;9.860;2024-03-08T11:57:40;101033.44;;;9.77;52.75
84116;BME280;74211;52.234;9.860;2024-03-08T12:00:19;101016.66;;;10.17;53.27
84116;BME280;74211;52.234;9.860;2024-03-08T12:03:03;101020.03;;;10.40;52.64
84116;BME280;74211;52.234;9.860;2024-03-08T12:05:33;101015.44;;;10.42;52.29
84116;BME280;74211;52.234;9.860;2024-03-08T12:08:05;101011.13;;;10.20;52.48
84116;BME280;74211;52.234;9.860;2024-03-08T12:10:40;100999.25;;;10.32;50.89
84116;BME280;74211;52.234;9.860;2024-03-08T12:13:10;100996.56;;;10.69;52.55
84116;BME280;74211;52.234;9.860;2024-03-08T12:15:44;100992.19;;;11.06;51.85
84116;BME280;74211;52.234;9.860;2024-03-08T12:18:15;100986.13;;;11.41;50.25
84116;BME280;74211;52.234;9.860;2024-03-08T12:20:45;100970.72;;;10.60;51.78
84116;BME280;74211;52.234;9.860;2024-03-08T12:23:17;100975.22;;;11.17;50.86
84116;BME280;74211;52.234;9.860;2024-03-08T12:25:47;100950.88;;;10.95;50.38
84116;BME280;74211;52.234;9.860;2024-03-08T12:28:19;100977.56;;;10.75;50.42
84116;BME280;74211;52.234;9.860;2024-03-08T12:30:52;100962.81;;;10.68;51.88
84116;BME280;74211;52.234;9.860;2024-03-08T12:33:26;100962.69;;;10.91;51.95
84116;BME280;74211;52.234;9.860;2024-03-08T12:35:56;100966.44;;;11.03;51.77
84116;BME280;74211;52.234;9.860;2024-03-08T12:38:28;100963.03;;;10.37;51.81
84116;BME280;74211;52.234;9.860;2024-03-08T12:40:59;100946.00;;;10.41;51.52
84116;BME280;74211;52.234;9.860;2024-03-08T12:43:30;100955.88;;;10.60;51.53
84116;BME280;74211;52.234;9.860;2024-03-08T12:46:04;100945.06;;;11.14;51.23
84116;BME280;74211;52.234;9.860;2024-03-08T12:48:35;100938.22;;;11.56;49.99
84116;BME280;74211;52.234;9.860;2024-03-08T12:51:07;100942.44;;;10.93;50.66
84116;BME280;74211;52.234;9.860;2024-03-08T12:53:37;100938.44;;;10.75;50.70
84116;BME280;74211;52.234;9.860;2024-03-08T12:56:07;100935.13;;;11.24;50.30
84116;BME280;74211;52.234;9.860;2024-03-08T12:58:38;100927.41;;;11.37;50.69
84116;BME280;74211;52.234;9.860;2024-03-08T13:01:11;100928.50;;;10.86;50.41
84116;BME280;74211;52.234;9.860;2024-03-08T13:03:45;100924.59;;;10.96;50.51
84116;BME280;74211;52.234;9.860;2024-03-08T13:06:16;100912.22;;;11.48;49.53
84116;BME280;74211;52.234;9.860;2024-03-08T13:08:48;100920.47;;;11.51;49.51
84116;BME280;74211;52.234;9.860;2024-03-08T13:11:19;100907.28;;;11.31;49.65
84116;BME280;74211;52.234;9.860;2024-03-08T13:13:50;100903.63;;;11.32;49.77
84116;BME280;74211;52.234;9.860;2024-03-08T13:16:23;100902.25;;;11.58;48.94
84116;BME280;74211;52.234;9.860;2024-03-08T13:18:56;100900.53;;;11.71;49.10